Time;durP1;ratioP1;P1;durP2;ratioP2;P2;SDS_P1;SDS_P2;PMS_P1;PMS_P2;Temp;Humidity;BMP_temperature;BMP_pressure;BME280_temperature;BME280_humidity;BME280_pressure;Samples;Min_cycle;Max_cycle;Signal;HPM_P1;HPM_P2
2021/01/13 00:01:09;;;;;;;27.88;10.00;;;-0.10;99.90;;;;;;4945202;29;20027;-92
2021/01/13 00:03:35;;;;;;;23.15;9.50;;;-0.10;99.90;;;;;;4944842;29;20038;-92
2021/01/13 00:06:02;;;;;;;30.52;10.02;;;-0.20;99.90;;;;;;4944663;29;20077;-92
2021/01/13 00:08:28;;;;;;;25.10;8.88;;;-0.20;99.90;;;;;;4948677;29;20043;-91
2021/01/13 00:10:53;;;;;;;19.50;8.55;;;-0.20;99.90;;;;;;4944459;29;20027;-92
2021/01/13 00:13:22;;;;;;;16.13;7.43;;;-0.20;99.90;;;;;;4943765;29;20049;-90
2021/01/13 00:15:48;;;;;;;21.17;7.72;;;-0.20;99.90;;;;;;4942926;29;20027;-90
2021/01/13 00:18:14;;;;;;;23.45;8.82;;;-0.20;99.90;;;;;;4942808;29;20527;-90
2021/01/13 00:20:39;;;;;;;20.50;6.97;;;-0.30;99.90;;;;;;4942973;29;20023;-91
2021/01/13 00:23:05;;;;;;;18.48;7.53;;;-0.30;99.90;;;;;;4942547;29;20031;-90
2021/01/13 00:25:31;;;;;;;22.25;8.55;;;-0.40;99.90;;;;;;4942489;29;20114;-90
2021/01/13 00:27:56;;;;;;;18.27;7.80;;;-0.40;99.90;;;;;;4942774;29;20035;-90
2021/01/13 00:30:25;;;;;;;19.60;7.97;;;-0.40;99.90;;;;;;4942796;29;20126;-90
2021/01/13 00:32:50;;;;;;;22.38;8.13;;;-0.40;99.90;;;;;;4942259;29;20054;-90
2021/01/13 00:35:17;;;;;;;33.35;8.95;;;-0.40;99.90;;;;;;4942500;29;20027;-89
2021/01/13 00:37:43;;;;;;;18.67;8.43;;;-0.30;99.90;;;;;;4941623;29;20031;-93
2021/01/13 00:40:10;;;;;;;23.48;9.82;;;-0.30;99.90;;;;;;4941658;29;20028;-90
2021/01/13 00:42:47;;;;;;;21.13;8.00;;;-0.30;99.90;;;;;;4941312;29;20035;-92
2021/01/13 00:45:14;;;;;;;23.63;7.50;;;-0.30;99.90;;;;;;4941683;29;20023;-91
2021/01/13 00:47:41;;;;;;;17.30;5.20;;;-0.30;99.90;;;;;;4941829;29;20066;-90
2021/01/13 00:50:08;;;;;;;14.35;5.40;;;-0.30;99.90;;;;;;4941615;29;20027;-90
2021/01/13 00:52:34;;;;;;;21.52;5.60;;;-0.30;99.90;;;;;;4941456;29;20051;-90
2021/01/13 00:55:03;;;;;;;15.65;6.70;;;-0.30;99.90;;;;;;4940867;29;20031;-92
2021/01/13 00:57:29;;;;;;;20.58;7.22;;;-0.30;99.90;;;;;;4940975;29;20027;-90
2021/01/13 00:59:55;;;;;;;18.77;5.85;;;-0.40;99.90;;;;;;4940932;29;20031;-93
2021/01/13 01:02:21;;;;;;;12.05;5.82;;;-0.40;99.90;;;;;;4941416;29;20122;-89
2021/01/13 01:04:47;;;;;;;21.13;9.27;;;-0.40;99.90;;;;;;4949926;29;20034;-89
2021/01/13 01:07:12;;;;;;;18.67;8.52;;;-0.40;99.90;;;;;;4944704;29;20031;-93
2021/01/13 01:09:38;;;;;;;21.40;8.73;;;-0.50;99.90;;;;;;4941528;29;20023;-91
2021/01/13 01:12:04;;;;;;;19.15;8.80;;;-0.50;99.90;;;;;;4940241;29;20710;-91
2021/01/13 01:14:30;;;;;;;26.65;9.07;;;-0.50;99.90;;;;;;4940194;29;20488;-91
2021/01/13 01:16:56;;;;;;;30.15;12.00;;;-0.50;99.90;;;;;;4947070;29;20027;-92
2021/01/13 01:19:21;;;;;;;28.70;11.68;;;-0.50;99.90;;;;;;4939399;29;20050;-90
2021/01/13 01:21:47;;;;;;;24.88;10.82;;;-0.50;99.90;;;;;;4949229;28;20105;-92
2021/01/13 01:24:13;;;;;;;26.60;10.25;;;-0.50;99.90;;;;;;4965247;28;20041;-91
2021/01/13 01:26:46;;;;;;;24.08;9.68;;;-0.50;99.90;;;;;;4946804;29;20053;-91
2021/01/13 01:29:13;;;;;;;26.15;9.45;;;-0.50;99.90;;;;;;4969099;28;20536;-91
2021/01/13 01:31:39;;;;;;;21.08;10.10;;;-0.50;99.90;;;;;;4975316;28;20031;-92
2021/01/13 01:34:05;;;;;;;22.52;8.82;;;-0.50;99.90;;;;;;4958725;28;20439;-91
2021/01/13 01:36:31;;;;;;;18.83;7.75;;;-0.50;99.90;;;;;;4958918;28;20118;-92
2021/01/13 01:38:57;;;;;;;23.08;9.27;;;-0.40;99.90;;;;;;4958811;28;20037;-90
2021/01/13 01:41:23;;;;;;;26.60;9.68;;;-0.40;99.90;;;;;;4958269;28;20027;-92
2021/01/13 01:43:49;;;;;;;23.48;10.07;;;-0.40;99.90;;;;;;4958573;28;20031;-90
2021/01/13 01:46:19;;;;;;;22.80;8.63;;;-0.40;99.90;;;;;;4958990;28;20047;-91
2021/01/13 01:48:52;;;;;;;23.38;9.50;;;-0.40;99.90;;;;;;4958910;28;20062;-90
2021/01/13 01:51:26;;;;;;;27.83;8.73;;;-0.40;99.90;;;;;;4958656;28;20031;-92
2021/01/13 01:54:04;;;;;;;23.38;9.95;;;-0.50;99.90;;;;;;4958788;28;20042;-92
2021/01/13 01:56:37;;;;;;;24.35;9.73;;;-0.50;99.90;;;;;;4958703;28;20081;-90
2021/01/13 01:59:09;;;;;;;21.10;9.02;;;-0.50;99.90;;;;;;4959045;28;20035;-91
2021/01/13 02:01:43;;;;;;;25.15;8.95;;;-0.50;99.90;;;;;;4959110;28;20034;-90
2021/01/13 02:04:14;;;;;;;25.58;11.00;;;-0.50;99.90;;;;;;4961623;28;20429;-91
2021/01/13 02:07:08;;;;;;;27.33;10.65;;;-0.40;99.90;;;;;;4963806;28;20047;-90
2021/01/13 02:09:34;;;;;;;26.27;11.30;;;-0.40;99.90;;;;;;4882264;29;20417;-90
2021/01/13 02:12:10;;;;;;;16.88;7.63;;;-0.40;99.90;;;;;;4882767;29;20119;-90
2021/01/13 02:14:36;;;;;;;31.10;11.05;;;-0.30;99.90;;;;;;4881431;29;20040;-91
2021/01/13 02:17:06;;;;;;;29.60;12.23;;;-0.30;99.90;;;;;;4880118;29;20029;-91
2021/01/13 02:19:46;;;;;;;25.80;10.45;;;-0.20;99.90;;;;;;4881316;29;20029;-91
2021/01/13 02:22:26;;;;;;;26.77;10.13;;;-0.20;99.90;;;;;;4881072;29;20036;-90
2021/01/13 02:25:55;;;;;;;18.73;8.63;;;-0.20;99.90;;;;;;4881242;29;20049;-91
2021/01/13 02:28:25;;;;;;;16.15;6.47;;;-0.10;99.90;;;;;;4881063;29;20032;-90
2021/01/13 02:31:03;;;;;;;15.05;7.18;;;-0.10;99.90;;;;;;4881413;29;20029;-89
2021/01/13 02:33:50;;;;;;;17.33;7.28;;;-0.10;99.90;;;;;;4881179;29;20521;-92
2021/01/13 02:36:20;;;;;;;22.20;7.53;;;-0.10;99.90;;;;;;4881202;29;20029;-90
2021/01/13 02:38:52;;;;;;;18.85;7.82;;;-0.10;99.90;;;;;;4881274;29;20510;-91
2021/01/13 02:41:19;;;;;;;20.13;7.93;;;-0.10;99.90;;;;;;4881525;29;20029;-91
2021/01/13 02:43:53;;;;;;;20.38;7.43;;;-0.10;99.90;;;;;;4881361;29;20048;-90
2021/01/13 02:46:49;;;;;;;16.77;6.65;;;-0.10;99.90;;;;;;4907799;29;20040;-90
2021/01/13 02:49:23;;;;;;;14.95;6.63;;;-0.10;99.90;;;;;;4939975;29;20032;-91
2021/01/13 02:51:55;;;;;;;17.13;6.85;;;0.00;99.90;;;;;;4939459;29;20039;-92
2021/01/13 02:54:39;;;;;;;17.92;7.60;;;0.00;99.90;;;;;;4939536;29;20074;-91
2021/01/13 02:57:07;;;;;;;16.63;6.75;;;0.00;99.90;;;;;;4939484;29;20377;-91
2021/01/13 02:59:36;;;;;;;15.65;6.25;;;-0.10;99.90;;;;;;4939888;29;20043;-89
2021/01/13 03:02:13;;;;;;;16.73;5.90;;;-0.10;99.90;;;;;;4941979;29;20074;-92
2021/01/13 03:04:39;;;;;;;15.65;5.57;;;-0.20;99.90;;;;;;4943445;29;20035;-92
2021/01/13 03:07:12;;;;;;;16.10;6.53;;;-0.20;99.90;;;;;;4945304;29;20042;-92
2021/01/13 03:09:49;;;;;;;15.90;6.55;;;-0.20;99.90;;;;;;4949494;29;20118;-91
2021/01/13 03:12:38;;;;;;;13.32;6.05;;;-0.20;99.90;;;;;;4957456;29;20011;-91
2021/01/13 03:15:04;;;;;;;12.02;5.35;;;-0.20;99.90;;;;;;4958006;29;20023;-91
2021/01/13 03:17:44;;;;;;;13.13;5.28;;;-0.30;99.90;;;;;;4964102;28;20042;-91
2021/01/13 03:20:27;;;;;;;20.93;6.93;;;-0.20;99.90;;;;;;4944095;29;20050;-92
2021/01/13 03:22:55;;;;;;;15.00;5.75;;;-0.20;99.90;;;;;;4948664;29;20063;-91
2021/01/13 03:25:23;;;;;;;13.75;5.50;;;-0.20;99.90;;;;;;4951548;29;20134;-90
2021/01/13 03:27:49;;;;;;;17.60;5.90;;;-0.30;99.90;;;;;;4948480;29;20028;-92
2021/01/13 03:30:18;;;;;;;15.52;6.85;;;-0.30;99.90;;;;;;4945365;29;20023;-91
2021/01/13 03:33:02;;;;;;;15.15;7.15;;;-0.30;99.90;;;;;;4944058;29;20126;-90
2021/01/13 03:35:38;;;;;;;14.45;6.53;;;-0.30;99.90;;;;;;4943352;29;20039;-91
2021/01/13 03:38:17;;;;;;;11.82;6.07;;;-0.30;99.90;;;;;;4942618;29;20126;-92
2021/01/13 03:40:44;;;;;;;14.75;5.85;;;-0.30;99.90;;;;;;4943040;29;20027;-91
2021/01/13 03:43:21;;;;;;;15.77;5.57;;;-0.30;99.90;;;;;;4959885;29;20051;-91
2021/01/13 03:45:55;;;;;;;13.77;5.65;;;-0.30;99.90;;;;;;4942326;29;20027;-91
2021/01/13 03:48:46;;;;;;;10.57;5.50;;;-0.30;99.90;;;;;;4942782;29;20544;-91
2021/01/13 03:51:59;;;;;;;19.23;7.07;;;-0.30;99.90;;;;;;4942871;29;20027;-91
2021/01/13 03:54:27;;;;;;;17.73;6.93;;;-0.30;99.90;;;;;;4939871;29;20126;-91
2021/01/13 03:57:00;;;;;;;17.17;7.28;;;-0.20;99.90;;;;;;4941977;29;20032;-92
2021/01/13 03:59:58;;;;;;;14.88;6.13;;;-0.20;99.90;;;;;;4941992;29;20019;-89
2021/01/13 04:02:30;;;;;;;14.45;6.03;;;-0.10;99.90;;;;;;4942208;29;20110;-89
2021/01/13 04:05:27;;;;;;;19.73;5.72;;;-0.10;99.90;;;;;;4942247;29;20027;-90
2021/01/13 04:07:55;;;;;;;13.88;5.55;;;0.00;99.90;;;;;;4942775;29;20094;-91
2021/01/13 04:10:21;;;;;;;18.77;6.85;;;0.00;99.90;;;;;;4941930;29;20058;-91
2021/01/13 04:13:38;;;;;;;16.92;6.78;;;0.00;99.90;;;;;;4958872;29;20027;-91
2021/01/13 04:16:04;;;;;;;14.18;6.40;;;0.00;99.90;;;;;;4918813;29;20052;-89
2021/01/13 04:18:30;;;;;;;16.40;5.60;;;0.00;99.90;;;;;;4902850;29;20367;-92
2021/01/13 04:20:59;;;;;;;15.90;5.63;;;0.00;99.90;;;;;;4902145;29;20501;-90
2021/01/13 04:23:25;;;;;;;16.67;6.13;;;-0.10;99.90;;;;;;4928608;29;20046;-92
2021/01/13 04:25:51;;;;;;;11.65;5.03;;;-0.10;99.90;;;;;;4920421;29;20126;-91
2021/01/13 04:28:20;;;;;;;7.80;4.55;;;-0.10;99.90;;;;;;4921837;29;20051;-90
2021/01/13 04:30:46;;;;;;;12.80;5.10;;;-0.10;99.90;;;;;;4904435;29;20078;-92
2021/01/13 04:33:13;;;;;;;13.13;5.78;;;-0.10;99.90;;;;;;4902795;29;20044;-91
2021/01/13 04:35:38;;;;;;;17.45;5.97;;;-0.10;99.90;;;;;;4901849;29;20028;-91
2021/01/13 04:38:07;;;;;;;21.50;5.63;;;-0.10;99.90;;;;;;4902412;29;20032;-91
2021/01/13 04:40:36;;;;;;;17.13;5.72;;;0.00;99.90;;;;;;4902099;29;20055;-89
2021/01/13 04:43:09;;;;;;;16.08;5.07;;;0.00;99.90;;;;;;4901519;29;20059;-91
2021/01/13 04:45:45;;;;;;;15.07;5.30;;;0.00;99.90;;;;;;4901900;29;20028;-91
2021/01/13 04:48:13;;;;;;;16.55;5.53;;;0.00;99.90;;;;;;4902182;29;20111;-90
2021/01/13 04:50:42;;;;;;;14.15;5.43;;;0.00;99.90;;;;;;4935435;29;20036;-91
2021/01/13 04:53:14;;;;;;;13.32;5.22;;;0.00;99.90;;;;;;4956752;28;20066;-92
2021/01/13 04:55:45;;;;;;;12.98;5.47;;;0.10;99.90;;;;;;4958992;29;20370;-91
2021/01/13 04:58:20;;;;;;;14.13;4.78;;;0.10;99.90;;;;;;4957552;29;20090;-91
2021/01/13 05:01:04;;;;;;;13.95;4.95;;;0.10;99.90;;;;;;4940992;29;20046;-91
2021/01/13 05:03:50;;;;;;;15.10;5.45;;;0.10;99.90;;;;;;4941038;29;20039;-90
2021/01/13 05:06:31;;;;;;;13.05;5.07;;;0.20;99.90;;;;;;4961568;28;20493;-90
2021/01/13 05:09:05;;;;;;;;;;;0.20;99.90;;;;;;4962645;29;20050;-91
2021/01/13 05:11:48;;;;;;;15.02;5.43;;;0.20;99.90;;;;;;4956254;29;19914;-91
2021/01/13 05:14:21;;;;;;;13.88;5.25;;;0.30;99.90;;;;;;4956944;29;20143;-90
2021/01/13 05:16:49;;;;;;;13.20;4.95;;;0.30;99.90;;;;;;4940639;29;20035;-92
2021/01/13 05:19:39;;;;;;;12.40;5.30;;;0.20;99.90;;;;;;4939462;29;20122;-92
2021/01/13 05:22:12;;;;;;;14.23;5.17;;;0.30;99.90;;;;;;4939069;29;20119;-91
2021/01/13 05:24:41;;;;;;;20.52;5.22;;;0.20;99.90;;;;;;4955209;29;20278;-91
2021/01/13 05:27:47;;;;;;;15.10;5.60;;;0.30;99.90;;;;;;4955402;29;20502;-92
2021/01/13 05:30:13;;;;;;;13.85;4.88;;;0.20;99.90;;;;;;4918940;29;20548;-92
2021/01/13 05:32:49;;;;;;;15.48;5.65;;;0.30;99.90;;;;;;4939233;29;20515;-92
2021/01/13 05:35:20;;;;;;;13.98;6.30;;;0.30;99.90;;;;;;4955827;28;20038;-91
2021/01/13 05:38:10;;;;;;;20.30;5.80;;;0.40;99.90;;;;;;4957012;29;20028;-92
2021/01/13 05:40:44;;;;;;;15.45;5.13;;;0.40;99.90;;;;;;4956779;29;20035;-93
2021/01/13 05:46:13;;;;;;;13.10;5.82;;;0.40;99.90;;;;;;4966166;29;20389;-91
2021/01/13 05:48:53;;;;;;;14.60;7.50;;;0.40;99.90;;;;;;4950839;29;20138;-93
2021/01/13 05:51:29;;;;;;;19.00;7.85;;;0.50;99.90;;;;;;4972475;28;20040;-93
2021/01/13 05:53:56;;;;;;;18.10;6.90;;;0.50;99.90;;;;;;4963491;28;20043;-92
2021/01/13 05:56:22;;;;;;;17.10;7.05;;;0.50;99.90;;;;;;4956881;29;20045;-92
2021/01/13 05:59:06;;;;;;;14.25;6.75;;;0.50;99.90;;;;;;4968469;29;20035;-93
2021/01/13 06:01:56;;;;;;;17.33;7.45;;;0.50;99.90;;;;;;4958423;29;20046;-92
2021/01/13 06:04:23;;;;;;;22.58;6.70;;;0.50;99.90;;;;;;4945178;29;20031;-92
2021/01/13 06:07:22;;;;;;;17.10;7.85;;;0.50;99.90;;;;;;4966874;29;20028;-93
2021/01/13 06:09:54;;;;;;;17.15;6.45;;;0.50;99.90;;;;;;4942295;29;20110;-92
2021/01/13 06:12:22;;;;;;;13.20;5.88;;;0.50;99.90;;;;;;4957712;28;20035;-92
2021/01/13 06:14:52;;;;;;;15.65;6.03;;;0.50;99.90;;;;;;4957057;28;20031;-92
2021/01/13 06:17:23;;;;;;;17.35;6.78;;;0.50;99.90;;;;;;4957180;29;20029;-92
2021/01/13 06:19:50;;;;;;;23.42;6.85;;;0.50;99.90;;;;;;4941273;29;20039;-92
2021/01/13 06:22:17;;;;;;;16.73;8.25;;;0.50;99.90;;;;;;4940782;29;20023;-92
2021/01/13 06:24:45;;;;;;;14.07;6.28;;;0.50;99.90;;;;;;4955935;29;20201;-93
2021/01/13 06:27:20;;;;;;;21.95;6.82;;;0.60;99.90;;;;;;4958171;29;20517;-92
2021/01/13 06:29:50;;;;;;;18.17;6.15;;;0.60;99.90;;;;;;4964561;28;20381;-92
2021/01/13 06:32:18;;;;;;;13.35;6.57;;;0.60;99.90;;;;;;4962731;29;20126;-92
2021/01/13 06:35:16;;;;;;;16.02;6.00;;;0.60;99.90;;;;;;4945881;29;20042;-92
2021/01/13 06:37:51;;;;;;;15.63;6.53;;;0.60;99.90;;;;;;4948410;29;20035;-91
2021/01/13 06:40:22;;;;;;;13.20;5.85;;;0.70;99.90;;;;;;4963052;28;20470;-92
2021/01/13 06:42:48;;;;;;;17.60;6.70;;;0.70;99.90;;;;;;4942980;29;20401;-92
2021/01/13 06:45:29;;;;;;;15.07;6.57;;;0.70;99.90;;;;;;4958332;28;20091;-92
2021/01/13 06:47:56;;;;;;;19.65;6.80;;;0.70;99.90;;;;;;4956842;29;20094;-91
2021/01/13 06:50:41;;;;;;;16.98;6.78;;;0.70;99.90;;;;;;4956313;29;20143;-93
2021/01/13 06:53:13;;;;;;;15.90;6.90;;;0.70;99.90;;;;;;4955762;29;20039;-92
2021/01/13 06:55:40;;;;;;;24.58;7.30;;;0.80;99.90;;;;;;4956068;29;20134;-92
2021/01/13 06:58:19;;;;;;;20.55;7.07;;;0.80;99.90;;;;;;4940109;29;20035;-92
2021/01/13 07:00:46;;;;;;;18.55;7.05;;;0.80;99.90;;;;;;4955537;29;20038;-91
2021/01/13 07:03:21;;;;;;;17.77;7.38;;;0.80;99.90;;;;;;4955675;29;20051;-93
2021/01/13 07:05:47;;;;;;;20.60;6.95;;;0.90;99.90;;;;;;4955717;28;20416;-93
2021/01/13 07:08:13;;;;;;;19.27;7.78;;;0.90;99.90;;;;;;4955624;29;20050;-93
2021/01/13 07:10:38;;;;;;;19.75;7.53;;;0.90;99.90;;;;;;4955368;28;20027;-92
2021/01/13 07:13:10;;;;;;;16.55;7.07;;;0.90;99.90;;;;;;4941233;28;20035;-92
2021/01/13 07:15:38;;;;;;;15.45;7.80;;;0.90;99.90;;;;;;4946841;28;20026;-93
2021/01/13 07:18:08;;;;;;;19.20;7.90;;;0.90;99.90;;;;;;4954737;28;20037;-93
2021/01/13 07:20:41;;;;;;;16.60;8.73;;;1.00;99.90;;;;;;4963321;28;20022;-91
2021/01/13 07:23:09;;;;;;;20.52;8.30;;;0.90;99.90;;;;;;4964887;28;20054;-92
2021/01/13 07:25:47;;;;;;;16.90;7.90;;;1.00;99.90;;;;;;4969156;28;20064;-92
2021/01/13 07:28:13;;;;;;;17.55;7.93;;;1.00;99.90;;;;;;4948270;28;20031;-93
2021/01/13 07:30:40;;;;;;;17.70;7.65;;;1.00;99.90;;;;;;4963118;28;20031;-91
2021/01/13 07:33:10;;;;;;;18.27;7.80;;;1.00;99.90;;;;;;4975610;28;20161;-92
2021/01/13 07:35:44;;;;;;;18.50;7.57;;;1.10;99.90;;;;;;4952362;28;20042;-91
2021/01/13 07:38:14;;;;;;;15.13;7.80;;;1.10;99.90;;;;;;4950539;28;20050;-91
2021/01/13 07:40:59;;;;;;;21.85;8.90;;;1.10;99.90;;;;;;4955084;28;20023;-92
2021/01/13 07:43:49;;;;;;;24.80;9.80;;;1.10;99.90;;;;;;4953050;28;20027;-91
2021/01/13 07:46:29;;;;;;;23.13;10.80;;;1.00;99.90;;;;;;4950397;28;20035;-91
2021/01/13 07:49:20;;;;;;;25.50;9.88;;;1.10;99.90;;;;;;4946886;28;20082;-92
2021/01/13 07:51:51;;;;;;;23.63;9.38;;;1.00;99.90;;;;;;4948059;28;20023;-92
2021/01/13 07:54:29;;;;;;;23.50;9.07;;;1.00;99.90;;;;;;4947235;28;20460;-91
2021/01/13 07:57:22;;;;;;;19.85;8.73;;;1.10;99.90;;;;;;4954554;29;20023;-92
2021/01/13 08:00:11;;;;;;;27.25;8.82;;;1.10;99.90;;;;;;4951516;28;20027;-93
2021/01/13 08:02:55;;;;;;;21.17;8.80;;;1.10;99.90;;;;;;4921057;28;20072;-93
2021/01/13 08:05:45;;;;;;;22.80;9.23;;;1.10;99.90;;;;;;4962380;28;20027;-92
2021/01/13 08:08:12;;;;;;;20.20;8.95;;;1.10;99.90;;;;;;4965715;28;20035;-91
2021/01/13 08:10:41;;;;;;;22.58;8.75;;;1.10;99.90;;;;;;4953295;28;20019;-91
2021/01/13 08:13:31;;;;;;;21.40;9.25;;;1.10;99.90;;;;;;4954487;28;20565;-92
2021/01/13 08:16:06;;;;;;;18.40;8.93;;;1.00;99.90;;;;;;4955239;28;20055;-92
2021/01/13 08:18:50;;;;;;;21.80;9.50;;;1.00;99.90;;;;;;4965890;28;20027;-92
2021/01/13 08:22:21;;;;;;;21.25;8.95;;;1.00;99.90;;;;;;4954596;28;20448;-92
2021/01/13 08:24:19;;;;;;;21.05;9.88;;;1.00;99.90;;;;;;4949260;28;20523;-91
2021/01/13 08:26:45;;;;;;;21.05;8.55;;;1.00;99.90;;;;;;4955050;28;20053;-91
2021/01/13 08:29:21;;;;;;;27.13;9.52;;;1.00;99.90;;;;;;4955133;28;20023;-92
2021/01/13 08:31:50;;;;;;;18.98;8.40;;;1.00;99.90;;;;;;4955984;28;20583;-92
2021/01/13 08:34:18;;;;;;;24.13;10.35;;;1.00;99.90;;;;;;4955939;28;20038;-94
2021/01/13 08:36:55;;;;;;;32.50;12.40;;;1.10;99.90;;;;;;4951660;28;20030;-90
2021/01/13 08:39:32;;;;;;;27.33;12.27;;;1.00;99.90;;;;;;4943440;29;20474;-92
2021/01/13 08:42:25;;;;;;;32.03;12.77;;;1.10;99.90;;;;;;4957535;28;20027;-90
2021/01/13 08:44:56;;;;;;;28.13;13.30;;;1.00;99.90;;;;;;4939883;29;20027;-91
2021/01/13 08:47:23;;;;;;;30.23;13.63;;;1.00;99.90;;;;;;4940354;28;20094;-91
2021/01/13 08:49:50;;;;;;;34.08;14.27;;;1.10;99.90;;;;;;4959297;28;20105;-91
2021/01/13 08:52:20;;;;;;;37.90;14.68;;;1.10;99.90;;;;;;4975391;28;20031;-91
2021/01/13 08:54:48;;;;;;;29.83;14.43;;;1.10;99.90;;;;;;4959952;28;20031;-91
2021/01/13 08:57:15;;;;;;;33.45;13.85;;;1.10;99.90;;;;;;4959768;28;20125;-93
2021/01/13 08:59:46;;;;;;;31.02;13.95;;;1.20;99.90;;;;;;4959796;28;20031;-92
2021/01/13 09:02:13;;;;;;;32.58;12.95;;;1.10;99.90;;;;;;4960055;28;20037;-91
2021/01/13 09:04:53;;;;;;;28.42;13.63;;;1.20;99.90;;;;;;4959348;28;20385;-91
2021/01/13 09:07:25;;;;;;;30.38;13.15;;;1.20;99.90;;;;;;4946367;29;20065;-94
2021/01/13 09:10:00;;;;;;;41.58;18.55;;;1.20;99.90;;;;;;4944974;29;20093;-96
2021/01/13 09:12:31;;;;;;;55.22;25.48;;;1.20;99.90;;;;;;4947391;29;20054;-96
2021/01/13 09:15:10;;;;;;;52.50;21.13;;;1.20;99.90;;;;;;4945208;29;20469;-95
2021/01/13 09:17:43;;;;;;;36.47;17.27;;;1.20;99.90;;;;;;4944916;29;20485;-94
2021/01/13 09:20:12;;;;;;;37.15;15.68;;;1.20;99.90;;;;;;4946295;29;20039;-96
2021/01/13 09:22:42;;;;;;;41.70;16.20;;;1.20;99.90;;;;;;4944341;29;20075;-95
2021/01/13 09:25:16;;;;;;;70.55;25.02;;;1.20;99.90;;;;;;4942871;29;20126;-96
2021/01/13 09:27:54;;;;;;;59.33;21.13;;;1.20;99.90;;;;;;4942682;29;20027;-94
2021/01/13 09:30:41;;;;;;;29.92;12.52;;;1.20;99.90;;;;;;4944402;29;20073;-95
2021/01/13 09:33:16;;;;;;;30.00;13.18;;;1.30;99.90;;;;;;4943692;29;20398;-94
2021/01/13 09:35:44;;;;;;;30.77;13.15;;;1.30;99.90;;;;;;4941910;29;20520;-93
2021/01/13 09:38:26;;;;;;;33.30;13.88;;;1.40;99.90;;;;;;4944033;29;20126;-95
2021/01/13 09:41:03;;;;;;;34.03;13.95;;;1.50;99.90;;;;;;4947418;29;20078;-93
2021/01/13 09:43:41;;;;;;;28.42;12.25;;;1.60;99.90;;;;;;4945784;29;20027;-94
2021/01/13 09:46:27;;;;;;;27.85;12.85;;;1.60;99.90;;;;;;4945856;28;20031;-95
2021/01/13 09:49:11;;;;;;;23.15;11.07;;;1.60;99.90;;;;;;4959719;29;20031;-95
2021/01/13 09:51:38;;;;;;;26.50;13.95;;;1.70;99.90;;;;;;4960842;29;20122;-93
2021/01/13 09:54:06;;;;;;;29.33;13.93;;;1.70;99.90;;;;;;4959917;29;20043;-94
2021/01/13 09:56:34;;;;;;;23.85;11.90;;;1.80;99.90;;;;;;4951748;29;20027;-94
2021/01/13 09:59:07;;;;;;;24.20;11.80;;;1.80;99.90;;;;;;4969427;29;20051;-93
2021/01/13 10:01:37;;;;;;;24.67;13.75;;;1.80;99.90;;;;;;4969596;29;20050;-95
2021/01/13 10:04:09;;;;;;;23.63;12.95;;;1.80;99.90;;;;;;4979347;28;20030;-94
2021/01/13 10:06:39;;;;;;;21.00;11.98;;;1.90;99.90;;;;;;4977849;28;20038;-94
2021/01/13 10:09:18;;;;;;;28.13;13.55;;;1.90;99.90;;;;;;4975925;28;20027;-95
2021/01/13 10:11:53;;;;;;;24.10;11.77;;;1.90;99.90;;;;;;4949618;28;20034;-94
2021/01/13 10:14:20;;;;;;;26.17;12.90;;;2.00;99.90;;;;;;4967083;28;20069;-95
2021/01/13 10:16:48;;;;;;;30.20;13.90;;;1.90;99.90;;;;;;4969350;28;20062;-95
2021/01/13 10:19:15;;;;;;;24.20;13.65;;;1.90;99.90;;;;;;4973012;28;20095;-95
2021/01/13 10:21:43;;;;;;;29.85;12.65;;;1.90;99.90;;;;;;4973328;28;20042;-95
2021/01/13 10:24:12;;;;;;;26.95;12.48;;;2.00;99.90;;;;;;4971532;28;20062;-94
2021/01/13 10:26:43;;;;;;;21.65;11.82;;;1.90;99.90;;;;;;4962990;28;20042;-95
2021/01/13 10:29:10;;;;;;;25.67;12.57;;;1.90;99.90;;;;;;4951985;28;20034;-94
2021/01/13 10:31:36;;;;;;;22.42;12.18;;;2.00;99.90;;;;;;4987035;28;20027;-96
2021/01/13 10:34:04;;;;;;;24.90;12.27;;;2.00;99.90;;;;;;4969958;28;20305;-94
2021/01/13 10:36:33;;;;;;;28.08;13.45;;;2.00;99.90;;;;;;4970289;28;20023;-95
2021/01/13 10:39:06;;;;;;;26.00;12.20;;;2.00;99.90;;;;;;4970954;28;20042;-94
2021/01/13 10:41:47;;;;;;;23.38;11.93;;;2.00;99.90;;;;;;4968190;28;20026;-95
2021/01/13 10:44:25;;;;;;;26.65;12.82;;;2.00;99.90;;;;;;4972788;28;20023;-95
2021/01/13 10:47:01;;;;;;;25.55;13.02;;;2.00;99.90;;;;;;4965242;28;20023;-95
2021/01/13 10:49:34;;;;;;;23.85;13.32;;;2.10;99.90;;;;;;4964990;28;20026;-94
2021/01/13 10:52:13;;;;;;;27.98;13.32;;;2.10;99.90;;;;;;4966497;28;20038;-95
2021/01/13 10:54:43;;;;;;;31.70;15.07;;;2.00;99.90;;;;;;4965399;28;20078;-95
2021/01/13 10:57:12;;;;;;;31.73;16.48;;;2.00;99.90;;;;;;4958970;28;20045;-95
2021/01/13 10:59:40;;;;;;;30.77;15.98;;;2.10;99.90;;;;;;4967008;28;20069;-95
2021/01/13 11:02:14;;;;;;;32.70;17.73;;;2.00;99.90;;;;;;4968502;28;20035;-95
2021/01/13 11:04:47;;;;;;;34.30;16.38;;;2.10;99.90;;;;;;4961277;28;20027;-95
2021/01/13 11:07:14;;;;;;;27.50;14.15;;;2.10;99.90;;;;;;4968378;28;20034;-95
2021/01/13 11:09:42;;;;;;;29.98;16.70;;;2.10;99.90;;;;;;4966310;28;20019;-94
2021/01/13 11:12:10;;;;;;;33.90;19.40;;;2.10;99.90;;;;;;4960887;28;20035;-95
2021/01/13 11:14:40;;;;;;;41.88;20.55;;;2.20;99.90;;;;;;4965490;28;20042;-96
2021/01/13 11:17:11;;;;;;;34.25;17.10;;;2.20;99.90;;;;;;4969029;28;20023;-96
2021/01/13 11:19:47;;;;;;;34.00;17.95;;;2.20;99.90;;;;;;4969714;28;20058;-95
2021/01/13 11:22:15;;;;;;;31.60;16.42;;;2.30;99.90;;;;;;4969383;28;20041;-95
2021/01/13 11:24:51;;;;;;;28.85;15.73;;;2.30;99.90;;;;;;4969508;28;20027;-96
2021/01/13 11:27:25;;;;;;;28.38;14.90;;;2.40;99.90;;;;;;4964126;29;20046;-96
2021/01/13 11:29:55;;;;;;;28.23;14.60;;;2.40;99.90;;;;;;4957038;28;20058;-94
2021/01/13 11:32:23;;;;;;;25.50;13.85;;;2.40;99.90;;;;;;4972534;28;20041;-95
2021/01/13 11:34:52;;;;;;;23.70;12.93;;;2.50;99.90;;;;;;4961164;28;20098;-96
2021/01/13 11:37:32;;;;;;;25.67;12.38;;;2.50;99.90;;;;;;4978692;28;20027;-94
2021/01/13 11:40:07;;;;;;;24.58;12.65;;;2.50;99.90;;;;;;4977093;28;20027;-94
2021/01/13 11:42:55;;;;;;;23.75;13.50;;;2.50;99.90;;;;;;4976950;28;20034;-94
2021/01/13 11:46:07;;;;;;;23.73;12.95;;;2.60;99.90;;;;;;4997829;28;20045;-94
2021/01/13 11:49:00;;;;;;;22.17;11.30;;;2.60;99.90;;;;;;4988850;28;20043;-94
2021/01/13 11:51:32;;;;;;;26.33;12.05;;;2.60;99.90;;;;;;4980415;28;20023;-94
2021/01/13 11:54:10;;;;;;;23.27;11.40;;;2.50;99.90;;;;;;4995017;28;20038;-94
2021/01/13 11:56:45;;;;;;;23.48;12.30;;;2.60;99.90;;;;;;4980585;28;20022;-94
2021/01/13 11:59:10;;;;;;;26.52;11.88;;;2.60;99.90;;;;;;4966786;28;20026;-94
2021/01/13 12:02:11;;;;;;;27.95;14.10;;;2.60;99.90;;;;;;4977845;28;20053;-94
2021/01/13 12:05:24;;;;;;;30.83;14.05;;;2.60;99.90;;;;;;4976101;28;20043;-95
2021/01/13 12:08:10;;;;;;;27.75;15.15;;;2.60;99.90;;;;;;4972465;28;20027;-96
2021/01/13 12:11:40;;;;;;;28.57;14.57;;;2.70;99.90;;;;;;4998332;28;20018;-95
2021/01/13 12:14:12;;;;;;;26.98;15.43;;;2.70;99.90;;;;;;4991841;23;20290;-96
2021/01/13 12:16:38;;;;;;;30.08;15.27;;;2.70;99.90;;;;;;4951728;29;20007;-96
2021/01/13 12:22:03;;;;;;;32.20;16.58;;;2.70;99.90;;;;;;4946650;29;20075;-96
2021/01/13 12:24:42;;;;;;;37.33;18.52;;;2.80;99.90;;;;;;4946130;29;20028;-96
2021/01/13 12:27:27;;;;;;;38.97;19.83;;;2.80;99.90;;;;;;4945999;29;20012;-96
2021/01/13 12:30:19;;;;;;;38.33;19.17;;;2.80;99.90;;;;;;4927530;29;20024;-96
2021/01/13 12:33:40;;;;;;;36.13;17.83;;;2.80;99.90;;;;;;4952485;29;20031;-96
2021/01/13 12:40:13;;;;;;;42.78;19.98;;;2.90;99.90;;;;;;4954953;29;20015;-96
2021/01/13 12:43:28;;;;;;;39.70;18.20;;;2.90;99.90;;;;;;4943993;29;20047;-96
2021/01/13 12:46:06;;;;;;;31.20;16.33;;;3.00;99.90;;;;;;4951119;28;20041;-96
2021/01/13 12:49:03;;;;;;;31.88;16.15;;;3.00;99.90;;;;;;4955240;29;20028;-96
2021/01/13 13:41:57;;;;;;;29.15;14.93;;;3.40;99.90;;;;;;4940728;29;20035;-96
2021/01/13 13:44:23;;;;;;;29.30;15.25;;;3.50;99.90;;;;;;4942587;29;20032;-96
2021/01/13 13:49:34;;;;;;;29.92;15.93;;;3.40;99.90;;;;;;5397753;23;20084;-94
2021/01/13 13:52:01;;;;;;;30.35;15.65;;;3.40;99.90;;;;;;4943224;29;20035;-95
2021/01/13 13:54:35;;;;;;;28.20;14.50;;;3.50;99.90;;;;;;4943521;29;20056;-95
2021/01/13 13:57:04;;;;;;;28.23;14.50;;;3.40;99.90;;;;;;4944317;29;20230;-95
2021/01/13 13:59:29;;;;;;;27.58;14.13;;;3.40;99.90;;;;;;4943966;29;20024;-96
2021/01/13 14:02:00;;;;;;;25.88;14.27;;;3.40;99.90;;;;;;4944637;29;20050;-95
2021/01/13 14:04:27;;;;;;;27.92;14.27;;;3.40;99.90;;;;;;4961389;29;20220;-96
2021/01/13 14:07:06;;;;;;;27.35;14.10;;;3.40;99.90;;;;;;4961220;29;20011;-96
2021/01/13 15:16:36;;;;;;;40.10;18.20;;;3.50;99.90;;;;;;4934894;29;20120;-96
2021/01/13 15:19:14;;;;;;;39.75;17.85;;;3.50;99.90;;;;;;4941170;29;20021;-96
2021/01/13 15:22:03;;;;;;;64.80;23.27;;;3.50;99.90;;;;;;4924878;29;20055;-96
2021/01/13 15:24:47;;;;;;;59.55;24.02;;;3.50;99.90;;;;;;4924866;29;20036;-96
2021/01/13 15:27:29;;;;;;;48.72;18.45;;;3.50;99.90;;;;;;4937181;29;20016;-95